Terminal Aerodrome Forecast
Issued by NWS

Home | Current Version | Previous Version | Text Only | Print | Product List | Glossary Off
Versions: 1 2 3 4 5 6 7 8 9 10 11 12 13 14 15 16

000
FTUS43 KBIS 050534
TAFJMS
TAF
KJMS 050534Z 0506/0606 17007KT P6SM BKN200
     FM051000 18005KT P6SM VCSH OVC030
     FM051300 30005KT P6SM VCSH OVC025
     FM051500 33007KT P6SM OVC035
     FM052000 31009KT P6SM SCT110
     FM060100 27007KT P6SM SCT140=

USA.gov is the U.S. government's official web portal to all federal, state and local government web resources and services.